createdAt,value
2022-09-04T00:04:35.495Z,41.27
2022-09-04T00:09:48.108Z,41.22
2022-09-04T00:14:51.901Z,41.57
2022-09-04T00:19:56.349Z,41.74
2022-09-04T00:25:15.901Z,41.92
2022-09-04T00:30:21.337Z,41.67
2022-09-04T00:35:24.304Z,41.79
2022-09-04T00:40:32.248Z,41.74
2022-09-04T00:46:02.334Z,41.42
2022-09-04T00:51:29.737Z,41.52
2022-09-04T00:56:51.955Z,41.71
2022-09-04T01:01:55.824Z,41.54
2022-09-04T01:07:09.917Z,41.59
2022-09-04T01:12:30.041Z,41.79
2022-09-04T01:17:41.496Z,41.92
2022-09-04T01:23:01.593Z,42.17
2022-09-04T01:28:05.428Z,41.90
2022-09-04T01:33:34.600Z,41.98
2022-09-04T01:38:49.789Z,42.18
2022-09-04T01:43:51.384Z,41.97
2022-09-04T01:49:29.426Z,41.79
2022-09-04T01:54:51.704Z,41.83
2022-09-04T02:00:12.766Z,42.16
2022-09-04T02:05:36.781Z,41.86
2022-09-04T02:11:03.072Z,41.92
2022-09-04T02:16:30.912Z,41.65
2022-09-04T02:22:01.592Z,41.85
2022-09-04T02:27:10.986Z,41.87
2022-09-04T02:32:19.504Z,42.19
2022-09-04T02:37:33.121Z,42.04
2022-09-04T02:43:01.318Z,42.02
2022-09-04T02:48:34.963Z,41.96
2022-09-04T02:54:10.338Z,42.50
2022-09-04T02:59:40.973Z,41.99
2022-09-04T03:04:54.181Z,42.16
2022-09-04T03:10:14.055Z,42.30
2022-09-04T03:15:27.361Z,41.99
2022-09-04T03:20:30.260Z,41.86
2022-09-04T03:25:52.381Z,41.94
2022-09-04T03:30:54.176Z,42.18
2022-09-04T03:36:09.032Z,42.05
2022-09-04T03:41:29.974Z,41.86
2022-09-04T03:46:37.296Z,41.93
2022-09-04T03:51:50.780Z,42.43
2022-09-04T03:57:02.993Z,42.07
2022-09-04T04:02:12.193Z,41.95
2022-09-04T04:07:35.428Z,42.48
2022-09-04T04:12:49.923Z,42.19
2022-09-04T04:18:14.137Z,42.32
2022-09-04T04:23:40.897Z,42.19
2022-09-04T04:28:59.721Z,42.55
2022-09-04T04:34:21.461Z,42.64
2022-09-04T04:39:32.539Z,42.56
2022-09-04T04:45:15.622Z,42.55
2022-09-04T04:50:27.127Z,42.56
2022-09-04T04:55:53.085Z,42.66
2022-09-04T05:01:12.614Z,42.85
2022-09-04T05:06:18.740Z,42.85
2022-09-04T05:11:24.122Z,42.83
2022-09-04T05:16:55.540Z,42.50
2022-09-04T05:22:05.657Z,42.61
2022-09-04T05:27:14.578Z,42.34
2022-09-04T05:32:28.393Z,42.73
2022-09-04T05:38:02.227Z,42.92
2022-09-04T05:43:21.080Z,42.87
2022-09-04T05:48:32.701Z,42.85
2022-09-04T05:54:09.249Z,42.57
2022-09-04T05:59:33.141Z,42.70
2022-09-04T06:04:47.952Z,42.66
2022-09-04T06:10:04.504Z,42.82
2022-09-04T06:15:31.310Z,42.52
2022-09-04T06:20:54.388Z,42.76
2022-09-04T06:26:15.597Z,42.52
2022-09-04T06:31:20.007Z,42.56
2022-09-04T06:36:42.582Z,42.50
2022-09-04T06:42:05.393Z,42.42
2022-09-04T06:47:37.400Z,42.37
2022-09-04T06:53:04.294Z,42.23
2022-09-04T06:58:20.810Z,42.37
2022-09-04T07:03:36.764Z,42.50
2022-09-04T07:09:02.904Z,42.22
2022-09-04T07:14:21.820Z,42.09
2022-09-04T07:20:05.426Z,42.26
2022-09-04T07:25:11.329Z,42.39
2022-09-04T07:30:15.941Z,42.22
2022-09-04T07:35:37.752Z,42.04
2022-09-04T07:40:48.265Z,41.99
2022-09-04T07:46:09.836Z,42.13
2022-09-04T07:51:13.641Z,42.18
2022-09-04T07:57:03.748Z,42.11
2022-09-04T08:02:10.801Z,42.33
2022-09-04T08:07:20.780Z,42.28
2022-09-04T08:12:50.891Z,42.39
2022-09-04T08:18:13.993Z,42.12
2022-09-04T08:23:24.380Z,42.44
2022-09-04T08:28:33.311Z,42.13
2022-09-04T08:33:57.449Z,42.38
2022-09-04T08:39:07.605Z,42.50
2022-09-04T08:44:34.024Z,42.52
2022-09-04T08:50:03.653Z,42.46
2022-09-04T08:55:23.685Z,42.44
2022-09-04T09:00:57.299Z,42.67
2022-09-04T09:06:37.684Z,42.73
2022-09-04T09:12:08.922Z,42.79
2022-09-04T09:17:40.956Z,42.85
2022-09-04T09:23:04.790Z,43.08
2022-09-04T09:28:36.324Z,42.90
2022-09-04T09:34:01.593Z,43.04
2022-09-04T09:39:11.946Z,43.06
2022-09-04T09:44:27.012Z,43.07
2022-09-04T09:49:35.358Z,43.08
2022-09-04T09:55:03.179Z,42.91
2022-09-04T10:00:12.014Z,43.29
2022-09-04T10:05:37.382Z,42.97
2022-09-04T10:10:54.008Z,42.88
2022-09-04T10:16:10.634Z,43.18
2022-09-04T10:21:50.825Z,43.17
2022-09-04T10:27:29.534Z,43.22
2022-09-04T10:32:45.080Z,43.07
2022-09-04T10:37:58.544Z,43.33
2022-09-04T10:43:36.960Z,43.22
2022-09-04T10:48:46.719Z,43.35
2022-09-04T10:54:11.033Z,43.25
2022-09-04T10:59:15.669Z,43.31
2022-09-04T11:04:38.724Z,43.44
2022-09-04T11:09:51.939Z,43.41
2022-09-04T11:15:08.777Z,43.35
2022-09-04T11:20:37.313Z,43.35
2022-09-04T11:26:02.766Z,43.43
2022-09-04T11:31:14.883Z,43.80
2022-09-04T11:36:45.445Z,43.59
2022-09-04T11:42:03.752Z,43.56
2022-09-04T11:47:21.485Z,43.31
2022-09-04T11:52:44.140Z,43.59
2022-09-04T11:58:14.332Z,43.67
2022-09-04T12:03:38.939Z,43.65
2022-09-04T12:09:09.421Z,43.69
2022-09-04T12:14:35.085Z,43.73
2022-09-04T12:19:53.129Z,43.64
2022-09-04T12:25:21.732Z,43.86
2022-09-04T12:30:53.935Z,43.53
2022-09-04T12:36:14.454Z,43.69
2022-09-04T12:41:19.046Z,43.70
2022-09-04T12:46:35.616Z,43.55
2022-09-04T12:51:45.323Z,43.80
2022-09-04T12:56:53.524Z,43.67
2022-09-04T13:02:17.237Z,43.81
2022-09-04T13:07:46.981Z,43.93
2022-09-04T13:13:21.585Z,44.05
2022-09-04T13:19:03.288Z,44.11
2022-09-04T13:24:26.388Z,44.18
2022-09-04T13:30:05.473Z,44.21
2022-09-04T13:35:38.572Z,44.00
2022-09-04T13:41:03.436Z,44.04
2022-09-04T13:46:13.165Z,43.96
2022-09-04T13:51:23.026Z,43.86
2022-09-04T13:56:34.309Z,44.02
2022-09-04T14:01:37.953Z,43.82
2022-09-04T14:06:39.372Z,43.86
2022-09-04T14:12:11.778Z,43.89
2022-09-04T14:17:13.179Z,43.87
2022-09-04T14:22:21.709Z,43.87
2022-09-04T14:27:47.312Z,43.44
2022-09-04T14:32:56.801Z,43.33
2022-09-04T14:38:32.481Z,43.35
2022-09-04T14:44:03.707Z,43.30
2022-09-04T14:49:06.444Z,43.48
2022-09-04T14:54:07.873Z,43.45
2022-09-04T14:59:21.337Z,43.55
2022-09-04T15:04:30.516Z,43.44
2022-09-04T15:09:44.549Z,43.40
2022-09-04T15:14:48.134Z,43.52
2022-09-04T15:20:01.983Z,43.85
2022-09-04T15:25:06.126Z,43.73
2022-09-04T15:30:21.670Z,43.84
2022-09-04T15:35:23.449Z,44.03
2022-09-04T15:40:28.938Z,43.58
2022-09-04T15:45:46.380Z,43.87
2022-09-04T15:50:57.601Z,43.63
2022-09-04T15:56:20.348Z,43.75
2022-09-04T16:01:24.823Z,43.64
2022-09-04T16:06:31.984Z,43.59
2022-09-04T16:11:37.317Z,43.55
2022-09-04T16:16:49.265Z,43.55
2022-09-04T16:22:20.586Z,43.65
2022-09-04T16:27:23.408Z,43.82
2022-09-04T16:32:27.222Z,43.73
2022-09-04T16:37:34.733Z,43.69
2022-09-04T16:42:38.165Z,43.80
2022-09-04T16:47:47.039Z,43.75
2022-09-04T16:53:12.688Z,43.41
2022-09-04T16:58:35.930Z,43.25
2022-09-04T17:04:12.439Z,43.30
2022-09-04T17:09:23.477Z,43.18
2022-09-04T17:14:35.448Z,43.36
2022-09-04T17:19:36.845Z,43.38
2022-09-04T17:29:08.423Z,43.47
2022-09-04T17:30:45.921Z,43.27
2022-09-04T17:40:56.304Z,42.86
2022-09-04T17:42:09.247Z,43.38
2022-09-04T17:47:34.039Z,43.13
2022-09-04T17:52:59.998Z,43.16
2022-09-04T17:58:08.616Z,42.92
2022-09-04T18:03:32.868Z,43.10
2022-09-04T18:08:39.428Z,42.88
2022-09-04T18:13:44.328Z,42.93
2022-09-04T18:18:52.881Z,43.22
2022-09-04T18:24:03.360Z,43.07
2022-09-04T18:34:01.402Z,43.35
2022-09-04T18:37:17.419Z,43.36
2022-09-04T18:43:44.999Z,43.41
2022-09-04T18:50:38.516Z,43.31
2022-09-04T18:51:47.288Z,43.54
2022-09-04T18:56:52.865Z,43.71
2022-09-04T19:02:14.044Z,43.40
2022-09-04T19:07:32.526Z,43.57
2022-09-04T19:12:55.791Z,43.58
2022-09-04T19:18:00.043Z,43.86
2022-09-04T19:23:06.384Z,43.85
2022-09-04T19:28:20.397Z,43.87
2022-09-04T19:33:39.304Z,43.69
2022-09-04T19:45:53.771Z,44.10
2022-09-04T19:46:13.432Z,43.83
2022-09-04T19:53:21.651Z,43.91
2022-09-04T19:55:24.332Z,44.32
2022-09-04T20:00:42.501Z,44.27
2022-09-04T20:05:57.810Z,44.06
2022-09-04T20:11:04.644Z,44.37
2022-09-04T20:16:21.507Z,44.32
2022-09-04T20:21:43.497Z,44.48
2022-09-04T20:27:15.422Z,44.21
2022-09-04T20:32:23.093Z,44.31
2022-09-04T20:37:41.426Z,44.30
2022-09-04T20:43:03.466Z,44.39
2022-09-04T20:52:57.624Z,44.58
2022-09-04T20:54:15.725Z,44.63
2022-09-04T21:03:07.908Z,44.72
2022-09-04T21:05:40.242Z,44.74
2022-09-04T21:10:52.497Z,44.94
2022-09-04T21:16:23.353Z,44.98
2022-09-04T21:21:36.912Z,45.17
2022-09-04T21:26:42.834Z,45.00
2022-09-04T21:31:45.540Z,44.98
2022-09-04T21:36:56.745Z,45.28
2022-09-04T21:42:16.636Z,45.02
2022-09-04T21:47:34.729Z,45.41
2022-09-04T21:53:10.009Z,45.32
2022-09-04T22:02:39.910Z,45.14
2022-09-04T22:04:17.437Z,45.52
2022-09-04T22:13:32.635Z,45.38
2022-09-04T22:15:11.626Z,45.73
2022-09-04T22:21:00.741Z,45.59
2022-09-04T22:26:27.744Z,45.49
2022-09-04T22:32:04.378Z,45.62
2022-09-04T22:37:45.500Z,45.81
2022-09-04T22:42:50.236Z,45.71
2022-09-04T22:48:19.860Z,45.82
2022-09-04T22:53:27.072Z,45.72
2022-09-04T22:59:07.617Z,45.85
2022-09-04T23:04:46.720Z,46.20
2022-09-04T23:13:53.395Z,45.91
2022-09-04T23:16:00.458Z,46.56
2022-09-04T23:26:38.330Z,46.28
2022-09-04T23:27:10.352Z,46.31
2022-09-04T23:32:46.340Z,46.37
2022-09-04T23:38:25.317Z,46.24
2022-09-04T23:43:45.446Z,46.64
2022-09-04T23:49:19.616Z,46.84
2022-09-04T23:54:49.117Z,46.46
2022-09-04T23:59:59.290Z,46.13
